Aérodrome :
LOGIN :

S'inscrire | Disclaimer

   EN    FR    IT 

 










Légende :    VFR   VFR Marginal   IFR   IFR Intensif   IFR Très Intensif
Visi : 
Plafond : 
>= 8 km
>= 3000ft
5 à 8 km
1000 à 3000 ft
1500m à 5 km
500 à 1000 ft
800 à 1500m
200 à 500 ft
< 800m
< 200 ft
Symboles :   Orages  Brouillard  Fortes neiges  Fortes précipitations  Vent > 20 kt
SIGMETs :   Divers  Orages  Givrage  Turbulence  Onde Orograph.  Cendres Volcan.







- Altitude de l'aérodrome : 0 ft


ENQA - Troll A Platform

DERNIER METAR :
  • 120520Z AUTO 17026KT 9999NDV BKN031/// 06/M01 Q1027 W05/S4

METARs EXPIRÉS :
  • 120450Z AUTO 17025KT 9999NDV BKN029/// 06/00 Q1027 W05/S4
  • 120420Z AUTO 18026KT 9999NDV BKN032/// 06/00 Q1027 W05/S4
  • 120350Z AUTO 17026KT 9999NDV BKN033/// 06/M01 Q1027 W05/S4
  • 120320Z AUTO 17025KT 9999NDV BKN033/// 06/M01 Q1027 W05/S4
  • 120250Z AUTO 17027KT 9999NDV BKN032/// 06/00 Q1026 W05/S4

TAF N/A
Pas de NOTAMs connus pour ce terrain.



MET'MAP, la Météo Aéronautique d'un coup d'oeil ! - Copyright ORBIFLY Décembre 2007 - Disclaimer

ORBIFLY MET'MAP TEAM :

Programmation & Développement : Alexandra Zaïnal
Conception & Développement : Baudouin d'Aumeries
Co-Programmation & Développement : Marc-Olivier Méhu
Soutien technique & logistique : Manuel Goepfert

Contact : metmap@orbifly.com




SOURCES & CREDITS :

   NOAA